ENRS/RET METAR and TAF weather

Enter ICAO airport designator
Station Type Date Time Source
ENRS METAR 2020/05/29 18:20 UTC NOAA

ENRS 291820Z 28008KT 9999 BKN008 07/05 Q1030


Station Type Date Time Source
ENRS Decoded METAR 2020/05/29 18:20 UTC NOAA

Rost Flyplass, Norway (ENRS) 67-31N 012-06E
May 29, 2020 - 02:20 PM EDT / 2020.05.29 1820 UTC
Wind: from the W (280 degrees) at 9 MPH (8 KT):0
Visibility: greater than 7 mile(s):0
Sky conditions: mostly cloudy
Temperature: 44 F (7 C)
Dew Point: 41 F (5 C)
Relative Humidity: 87%
Pressure (altimeter): 30.42 in. Hg (1030 hPa)
ob: ENRS 291820Z 28008KT 9999 BKN008 07/05 Q1030
cycle: 18

Station Type Date Time Source
ENRS TAF UTC NOAA

Error!

Example: see airport list